CST,Max TemperatureF,Mean TemperatureF,Min TemperatureF,Max Dew PointF,MeanDew PointF,Min DewpointF,Max Humidity, Mean Humidity, Min Humidity, Max Sea Level PressureIn, Mean Sea Level PressureIn, Min Sea Level PressureIn, Max VisibilityMiles, Mean VisibilityMiles, Min VisibilityMiles, Max Wind SpeedMPH, Mean Wind SpeedMPH, Max Gust SpeedMPH,PrecipitationIn, CloudCover, Events, WindDirDegrees
2013-1-1,24,10,-5,16,6,-11,86,72,62,30.28,30.18,30.03,10,10,5,16,2,21,0.00,7,,202
2013-1-2,33,22,12,27,16,7,86,77,68,30.15,30.00,29.94,10,7,2,22,4,29,0.00,7,Snow,273
2013-1-3,23,16,8,12,6,0,79,70,63,30.32,30.23,30.13,10,8,2,28,15,30,0.00,4,Snow,276
2013-1-4,32,23,14,18,13,7,74,63,51,30.13,30.10,30.06,10,10,10,20,8,21,0.00,0,,229
2013-1-5,32,21,10,18,10,3,79,70,55,30.08,29.98,29.87,10,10,7,23,6,32,0.00,1,,278
2013-1-6,24,17,10,16,10,3,79,71,59,30.25,30.16,29.98,10,9,1,23,10,29,0.00,1,Snow,235
2013-1-7,39,32,24,27,21,16,80,67,56,29.98,29.94,29.89,10,10,10,25,12,32,0.00,0,,201
2013-1-8,35,26,17,27,20,12,86,75,69,29.98,29.87,29.75,10,9,1,15,4,16,0.00,1,,190
2013-1-9,37,32,28,28,24,19,75,67,52,30.37,30.22,29.98,10,10,10,18,12,24,0.00,1,,228
2013-1-10,39,34,30,34,27,21,93,71,56,30.28,30.04,29.68,10,8,1,17,13,22,0.15,3,Rain,140
2013-1-11,42,38,35,37,34,28,93,86,75,29.68,29.49,29.38,10,3,0,18,9,23,0.00,8,Fog,158
2013-1-12,35,22,8,28,6,-2,86,62,49,30.10,29.90,29.48,10,9,2,28,19,34,0.00,5,Snow,272
2013-1-13,12,8,3,1,-1,-6,72,64,53,30.26,30.15,30.06,10,9,3,18,11,24,0.00,4,Snow,295
2013-1-14,21,14,8,9,5,1,73,66,54,30.41,30.33,30.26,10,10,5,14,1,,0.00,2,Snow,238
2013-1-15,33,24,14,18,12,7,74,60,35,30.27,30.12,29.88,10,10,10,16,8,22,0.00,0,,190
2013-1-16,41,26,10,34,21,0,87,70,55,30.26,29.91,29.72,10,10,4,22,14,28,0.00,5,Rain-Snow,266
2013-1-17,30,18,6,18,7,-8,74,59,38,30.40,30.36,30.24,10,10,10,17,7,22,0.00,6,,294
2013-1-18,46,36,26,30,26,18,80,65,46,30.22,29.89,29.76,10,10,7,21,10,30,0.00,0,,197
2013-1-19,44,26,6,30,19,-4,75,62,53,30.29,29.92,29.72,10,10,10,39,12,51,0.00,2,,283
2013-1-20,14,8,1,3,-3,-9,73,61,56,30.41,30.34,30.28,10,9,2,24,16,31,0.00,4,Snow,294
2013-1-21,5,0,-5,-8,-13,-18,66,56,47,30.38,30.33,30.30,10,10,3,25,17,32,0.00,0,Snow,288
2013-1-22,15,5,-5,7,-7,-13,71,58,41,30.38,30.31,30.21,10,10,7,9,2,,0.00,2,Snow,289
2013-1-23,17,8,-2,10,1,-15,79,62,45,30.58,30.30,30.13,10,10,3,29,8,38,0.00,4,Snow,311
2013-1-24,17,8,-2,3,-11,-15,58,42,27,30.63,30.43,30.14,10,10,4,22,8,29,0.00,2,Snow,140
2013-1-25,26,16,5,16,2,-6,69,54,33,30.30,30.13,29.99,10,10,7,33,13,40,0.00,2,Snow,282
2013-1-26,30,16,3,10,2,-6,72,54,34,30.32,30.20,30.04,10,10,10,20,5,24,0.00,2,,129
2013-1-27,35,32,28,30,24,10,81,68,41,30.05,29.88,29.78,10,6,0,18,8,25,0.38,7,Fog-Snow,137
2013-1-28,35,34,32,30,30,28,87,85,81,29.88,29.80,29.59,5,1,0,5,0,,0.00,8,Fog-Snow,99
2013-1-29,35,30,26,30,27,21,87,83,74,29.76,29.66,29.56,10,4,0,14,4,,0.00,8,Fog,307
2013-1-30,26,16,5,21,9,-4,80,71,66,29.83,29.74,29.68,10,10,3,18,12,22,0.00,7,Snow,303
2013-1-31,5,0,-5,-4,-11,-17,66,62,55,30.32,30.08,29.84,10,9,3,21,15,26,0.00,3,,288